createdAt,value
2019-02-19T00:00:44.138Z,1009.71
2019-02-19T00:01:44.048Z,1009.69
2019-02-19T00:02:44.065Z,1009.68
2019-02-19T00:03:44.076Z,1009.66
2019-02-19T00:04:44.090Z,1009.66
2019-02-19T00:06:44.119Z,1009.61
2019-02-19T00:07:44.131Z,1009.61
2019-02-19T00:08:44.149Z,1009.61
2019-02-19T00:09:44.158Z,1009.6
2019-02-19T00:10:44.172Z,1009.62
2019-02-19T00:11:44.189Z,1009.57
2019-02-19T00:12:44.201Z,1009.61
2019-02-19T00:13:44.214Z,1009.58
2019-02-19T00:14:44.228Z,1009.57
2019-02-19T00:15:44.242Z,1009.55
2019-02-19T00:16:44.256Z,1009.56
2019-02-19T00:17:44.270Z,1009.53
2019-02-19T00:18:44.283Z,1009.54
2019-02-19T00:19:44.297Z,1009.57
2019-02-19T00:20:44.310Z,1009.54
2019-02-19T00:22:44.338Z,1009.53
2019-02-19T00:23:44.352Z,1009.56
2019-02-19T00:24:44.365Z,1009.56
2019-02-19T00:25:44.379Z,1009.51
2019-02-19T00:26:44.393Z,1009.54
2019-02-19T00:27:44.405Z,1009.53
2019-02-19T00:28:44.419Z,1009.51
2019-02-19T00:29:44.433Z,1009.55
2019-02-19T00:30:44.447Z,1009.57
2019-02-19T00:31:44.461Z,1009.54
2019-02-19T00:32:44.474Z,1009.61
2019-02-19T00:33:44.488Z,1009.56
2019-02-19T00:34:44.502Z,1009.59
2019-02-19T00:35:44.521Z,1009.56
2019-02-19T00:37:44.543Z,1009.55
2019-02-19T00:38:44.558Z,1009.52
2019-02-19T00:39:44.570Z,1009.52
2019-02-19T00:40:44.585Z,1009.52
2019-02-19T00:41:44.598Z,1009.5
2019-02-19T00:42:44.611Z,1009.51
2019-02-19T00:43:44.625Z,1009.49
2019-02-19T00:44:44.638Z,1009.49
2019-02-19T00:45:44.652Z,1009.48
2019-02-19T00:46:44.670Z,1009.49
2019-02-19T00:47:44.679Z,1009.44
2019-02-19T00:48:44.698Z,1009.43
2019-02-19T00:49:44.708Z,1009.46
2019-02-19T00:50:44.720Z,1009.41
2019-02-19T00:51:44.733Z,1009.4
2019-02-19T00:52:44.748Z,1009.37
2019-02-19T00:53:44.760Z,1009.35
2019-02-19T00:54:44.775Z,1009.34
2019-02-19T00:55:44.788Z,1009.34
2019-02-19T00:56:44.804Z,1009.36
2019-02-19T00:57:44.814Z,1009.31
2019-02-19T00:58:44.828Z,1009.31
2019-02-19T00:59:44.842Z,1009.32
2019-02-19T01:00:44.855Z,1009.32
2019-02-19T01:01:44.869Z,1009.33
2019-02-19T01:02:44.882Z,1009.31
2019-02-19T01:03:44.896Z,1009.32
2019-02-19T01:04:44.909Z,1009.28
2019-02-19T01:05:44.923Z,1009.29
2019-02-19T01:06:44.936Z,1009.22
2019-02-19T01:07:44.949Z,1009.26
2019-02-19T01:09:44.976Z,1009.22
2019-02-19T01:10:44.991Z,1009.21
2019-02-19T01:11:45.003Z,1009.17
2019-02-19T01:12:45.016Z,1009.17
2019-02-19T01:13:45.030Z,1009.16
2019-02-19T01:14:45.045Z,1009.13
2019-02-19T01:15:45.058Z,1009.12
2019-02-19T01:16:45.071Z,1009.14
2019-02-19T01:17:45.084Z,1009.14
2019-02-19T01:18:45.098Z,1009.14
2019-02-19T01:19:45.112Z,1009.13
2019-02-19T01:20:45.124Z,1009.11
2019-02-19T01:21:45.138Z,1009.11
2019-02-19T01:22:45.151Z,1009.11
2019-02-19T01:23:45.164Z,1009.08
2019-02-19T01:25:45.192Z,1009.03
2019-02-19T01:26:45.209Z,1009.05
2019-02-19T01:27:45.219Z,1009.01
2019-02-19T01:28:45.232Z,1008.97
2019-02-19T01:29:45.244Z,1008.97
2019-02-19T01:30:45.259Z,1008.99
2019-02-19T01:31:45.271Z,1008.95
2019-02-19T01:32:45.284Z,1008.99
2019-02-19T01:33:45.299Z,1009.01
2019-02-19T01:34:45.311Z,1009.04
2019-02-19T01:35:45.325Z,1009.01
2019-02-19T01:36:45.338Z,1008.99
2019-02-19T01:37:45.351Z,1008.96
2019-02-19T01:38:45.364Z,1008.88
2019-02-19T01:39:45.396Z,1008.88
2019-02-19T01:41:45.404Z,1008.87
2019-02-19T01:42:45.417Z,1008.88
2019-02-19T01:43:45.431Z,1008.86
2019-02-19T01:44:45.443Z,1008.8
2019-02-19T01:45:45.459Z,1008.8
2019-02-19T01:46:45.571Z,1008.76
2019-02-19T01:47:45.485Z,1008.77
2019-02-19T01:48:45.496Z,1008.76
2019-02-19T01:49:45.510Z,1008.78
2019-02-19T01:50:45.524Z,1008.74
2019-02-19T01:51:45.536Z,1008.72
2019-02-19T01:52:45.549Z,1008.76
2019-02-19T01:53:45.563Z,1008.74
2019-02-19T01:54:45.576Z,1008.76
2019-02-19T01:55:45.589Z,1008.74
2019-02-19T01:57:45.615Z,1008.7
2019-02-19T01:58:45.630Z,1008.72
2019-02-19T01:59:45.641Z,1008.73
2019-02-19T02:00:45.655Z,1008.68
2019-02-19T02:01:45.669Z,1008.7
2019-02-19T02:02:45.782Z,1008.7
2019-02-19T02:03:45.696Z,1008.71
2019-02-19T02:04:45.708Z,1008.71
2019-02-19T02:05:45.722Z,1008.77
2019-02-19T02:06:45.834Z,1008.73
2019-02-19T02:07:45.748Z,1008.75
2019-02-19T02:08:45.761Z,1008.68
2019-02-19T02:09:45.774Z,1008.69
2019-02-19T02:10:45.788Z,1008.71
2019-02-19T02:12:45.814Z,1008.71
2019-02-19T02:13:45.827Z,1008.73
2019-02-19T02:14:45.840Z,1008.71
2019-02-19T02:15:45.855Z,1008.7
2019-02-19T02:16:45.873Z,1008.7
2019-02-19T02:17:45.986Z,1008.67
2019-02-19T02:18:45.899Z,1008.68
2019-02-19T02:19:45.913Z,1008.7
2019-02-19T02:20:45.925Z,1008.7
2019-02-19T02:21:45.938Z,1008.67
2019-02-19T02:22:45.952Z,1008.65
2019-02-19T02:23:45.965Z,1008.6
2019-02-19T02:24:45.978Z,1008.58
2019-02-19T02:25:45.991Z,1008.57
2019-02-19T02:26:46.005Z,1008.61
2019-02-19T02:27:46.018Z,1008.61
2019-02-19T02:28:46.031Z,1008.61
2019-02-19T02:29:46.044Z,1008.62
2019-02-19T02:30:46.057Z,1008.62
2019-02-19T02:31:46.071Z,1008.62
2019-02-19T02:32:46.083Z,1008.58
2019-02-19T02:33:46.096Z,1008.56
2019-02-19T02:34:46.112Z,1008.53
2019-02-19T02:35:46.123Z,1008.48
2019-02-19T02:36:46.137Z,1008.52
2019-02-19T02:37:46.156Z,1008.52
2019-02-19T02:38:46.162Z,1008.54
2019-02-19T02:39:46.175Z,1008.59
2019-02-19T02:40:46.195Z,1008.56
2019-02-19T02:41:46.205Z,1008.58
2019-02-19T02:42:46.231Z,1008.51
2019-02-19T02:44:46.241Z,1008.48
2019-02-19T02:45:52.635Z,1008.51
2019-02-19T02:46:46.278Z,1008.47
2019-02-19T02:47:46.283Z,1008.45
2019-02-19T02:48:46.293Z,1008.43
2019-02-19T02:49:46.307Z,1008.45
2019-02-19T02:50:46.320Z,1008.44
2019-02-19T02:51:46.333Z,1008.42
2019-02-19T02:52:46.347Z,1008.44
2019-02-19T02:53:46.363Z,1008.42
2019-02-19T02:54:46.372Z,1008.4
2019-02-19T02:55:46.384Z,1008.37
2019-02-19T02:56:46.398Z,1008.37
2019-02-19T02:57:46.411Z,1008.38
2019-02-19T02:58:46.425Z,1008.38
2019-02-19T03:00:46.451Z,1008.39
2019-02-19T03:01:46.466Z,1008.39
2019-02-19T03:02:46.477Z,1008.32
2019-02-19T03:03:46.495Z,1008.41
2019-02-19T03:04:46.504Z,1008.42
2019-02-19T03:05:46.517Z,1008.39
2019-02-19T03:06:46.530Z,1008.37
2019-02-19T03:07:46.544Z,1008.42
2019-02-19T03:08:46.556Z,1008.43
2019-02-19T03:09:46.569Z,1008.45
2019-02-19T03:10:46.584Z,1008.46
2019-02-19T03:11:46.600Z,1008.45
2019-02-19T03:12:46.641Z,1008.42
2019-02-19T03:13:46.623Z,1008.43
2019-02-19T03:14:46.636Z,1008.4
2019-02-19T03:16:46.662Z,1008.39
2019-02-19T03:17:46.687Z,1008.38
2019-02-19T03:18:46.690Z,1008.39
2019-02-19T03:19:46.707Z,1008.4
2019-02-19T03:20:46.716Z,1008.39
2019-02-19T03:21:46.731Z,1008.36
2019-02-19T03:22:46.743Z,1008.37
2019-02-19T03:23:46.755Z,1008.39
2019-02-19T03:24:46.768Z,1008.39
2019-02-19T03:25:46.791Z,1008.36
2019-02-19T03:26:46.797Z,1008.32
2019-02-19T03:27:46.809Z,1008.35
2019-02-19T03:28:46.828Z,1008.34
2019-02-19T03:29:46.839Z,1008.35
2019-02-19T03:30:46.848Z,1008.33
2019-02-19T03:32:46.882Z,1008.36
2019-02-19T03:33:46.889Z,1008.38
2019-02-19T03:34:46.924Z,1008.36
2019-02-19T03:35:46.917Z,1008.36
2019-02-19T03:36:46.930Z,1008.35
2019-02-19T03:37:46.939Z,1008.33
2019-02-19T03:38:46.953Z,1008.36
2019-02-19T03:39:46.967Z,1008.32
2019-02-19T03:40:46.983Z,1008.32
2019-02-19T03:41:46.992Z,1008.37
2019-02-19T03:42:47.006Z,1008.38
2019-02-19T03:43:47.019Z,1008.37
2019-02-19T03:44:47.032Z,1008.39
2019-02-19T03:45:47.047Z,1008.37
2019-02-19T03:47:47.081Z,1008.41
2019-02-19T03:48:47.085Z,1008.43
2019-02-19T03:49:47.099Z,1008.45
2019-02-19T03:50:47.112Z,1008.41
2019-02-19T03:51:47.126Z,1008.46
2019-02-19T03:52:47.139Z,1008.41
2019-02-19T03:53:47.151Z,1008.44
2019-02-19T03:54:47.165Z,1008.44
2019-02-19T03:55:47.178Z,1008.43
2019-02-19T03:56:47.191Z,1008.45
2019-02-19T03:57:47.208Z,1008.47
2019-02-19T03:58:47.217Z,1008.41
2019-02-19T03:59:47.230Z,1008.41
2019-02-19T04:00:47.247Z,1008.43
2019-02-19T04:01:47.258Z,1008.34
2019-02-19T04:02:47.270Z,1008.35
2019-02-19T04:03:47.283Z,1008.32
2019-02-19T04:04:47.296Z,1008.37
2019-02-19T04:05:47.310Z,1008.39
2019-02-19T04:06:47.322Z,1008.36
2019-02-19T04:07:47.336Z,1008.37
2019-02-19T04:08:47.349Z,1008.37
2019-02-19T04:09:47.362Z,1008.36
2019-02-19T04:10:47.375Z,1008.35
2019-02-19T04:11:47.388Z,1008.35
2019-02-19T04:12:47.403Z,1008.36
2019-02-19T04:13:47.415Z,1008.32
2019-02-19T04:14:47.427Z,1008.38
2019-02-19T04:15:47.442Z,1008.35
2019-02-19T04:16:48.922Z,1008.34
2019-02-19T04:17:47.469Z,1008.31
2019-02-19T04:19:47.495Z,1008.32
2019-02-19T04:20:47.508Z,1008.33
2019-02-19T04:21:47.520Z,1008.3
2019-02-19T04:22:47.535Z,1008.28
2019-02-19T04:23:47.547Z,1008.26
2019-02-19T04:24:47.561Z,1008.31
2019-02-19T04:25:47.573Z,1008.32
2019-02-19T04:26:47.589Z,1008.36
2019-02-19T04:27:47.601Z,1008.36
2019-02-19T04:28:47.612Z,1008.38
2019-02-19T04:29:47.626Z,1008.35
2019-02-19T04:30:47.640Z,1008.37
2019-02-19T04:31:47.653Z,1008.36
2019-02-19T04:32:47.666Z,1008.35
2019-02-19T04:33:47.680Z,1008.33
2019-02-19T04:35:47.705Z,1008.31
2019-02-19T04:36:47.719Z,1008.28
2019-02-19T04:37:47.732Z,1008.3
2019-02-19T04:38:47.746Z,1008.26
2019-02-19T04:39:47.758Z,1008.23
2019-02-19T04:40:47.771Z,1008.24
2019-02-19T04:41:47.785Z,1008.28
2019-02-19T04:42:47.799Z,1008.29
2019-02-19T04:43:47.813Z,1008.26
2019-02-19T04:44:47.824Z,1008.3
2019-02-19T04:45:47.838Z,1008.29
2019-02-19T04:46:47.952Z,1008.26
2019-02-19T04:47:47.864Z,1008.25
2019-02-19T04:48:47.878Z,1008.26
2019-02-19T04:49:47.892Z,1008.28
2019-02-19T04:51:47.918Z,1008.27
2019-02-19T04:52:47.932Z,1008.3
2019-02-19T04:53:47.958Z,1008.3
2019-02-19T04:54:47.959Z,1008.25
2019-02-19T04:55:47.971Z,1008.24
2019-02-19T04:56:47.985Z,1008.24
2019-02-19T04:57:47.998Z,1008.26
2019-02-19T04:58:48.011Z,1008.23
2019-02-19T04:59:48.027Z,1008.27
2019-02-19T05:00:48.039Z,1008.24
2019-02-19T05:01:48.052Z,1008.21
2019-02-19T05:02:48.064Z,1008.25
2019-02-19T05:03:48.078Z,1008.24
2019-02-19T05:04:48.092Z,1008.23
2019-02-19T05:05:48.104Z,1008.23
2019-02-19T05:07:48.133Z,1008.26
2019-02-19T05:08:48.146Z,1008.26
2019-02-19T05:09:48.163Z,1008.25
2019-02-19T05:10:48.172Z,1008.29
2019-02-19T05:11:48.185Z,1008.24
2019-02-19T05:12:48.198Z,1008.25
2019-02-19T05:13:48.213Z,1008.32
2019-02-19T05:14:48.241Z,1008.32
2019-02-19T05:15:48.239Z,1008.28
2019-02-19T05:16:48.252Z,1008.3
2019-02-19T05:17:48.266Z,1008.29
2019-02-19T05:18:48.279Z,1008.29
2019-02-19T05:19:48.294Z,1008.29
2019-02-19T05:20:48.307Z,1008.34
2019-02-19T05:22:48.335Z,1008.29
2019-02-19T05:23:48.348Z,1008.32
2019-02-19T05:24:48.361Z,1008.26
2019-02-19T05:25:48.382Z,1008.31
2019-02-19T05:26:48.388Z,1008.33
2019-02-19T05:27:48.401Z,1008.3
2019-02-19T05:28:48.415Z,1008.33
2019-02-19T05:29:48.429Z,1008.32
2019-02-19T05:30:48.441Z,1008.29
2019-02-19T05:31:48.455Z,1008.26
2019-02-19T05:32:48.469Z,1008.33
2019-02-19T05:33:48.483Z,1008.34
2019-02-19T05:34:48.495Z,1008.34
2019-02-19T05:35:48.509Z,1008.36
2019-02-19T05:36:48.527Z,1008.37
2019-02-19T05:37:48.537Z,1008.32
2019-02-19T05:38:48.550Z,1008.32
2019-02-19T05:39:48.563Z,1008.32
2019-02-19T05:40:48.578Z,1008.34
2019-02-19T05:41:48.589Z,1008.36
2019-02-19T05:42:48.605Z,1008.34
2019-02-19T05:43:48.617Z,1008.35
2019-02-19T05:44:48.633Z,1008.33
2019-02-19T05:45:48.645Z,1008.32
2019-02-19T05:46:50.037Z,1008.31
2019-02-19T05:47:48.681Z,1008.36
2019-02-19T05:48:48.685Z,1008.31
2019-02-19T05:49:48.698Z,1008.32
2019-02-19T05:50:48.720Z,1008.34
2019-02-19T05:51:48.726Z,1008.34
2019-02-19T05:52:48.740Z,1008.3
2019-02-19T05:54:48.766Z,1008.32
2019-02-19T05:55:48.780Z,1008.37
2019-02-19T05:56:48.794Z,1008.35
2019-02-19T05:57:48.808Z,1008.37
2019-02-19T05:58:48.823Z,1008.38
2019-02-19T05:59:48.840Z,1008.36
2019-02-19T06:00:48.848Z,1008.37
2019-02-19T06:01:48.863Z,1008.44
2019-02-19T06:02:48.876Z,1008.42
2019-02-19T06:03:48.889Z,1008.4
2019-02-19T06:04:48.902Z,1008.39
2019-02-19T06:05:48.917Z,1008.39
2019-02-19T06:06:48.930Z,1008.42
2019-02-19T06:07:48.948Z,1008.44
2019-02-19T06:08:48.958Z,1008.48
2019-02-19T06:10:48.988Z,1008.5
2019-02-19T06:11:48.998Z,1008.57
2019-02-19T06:12:49.012Z,1008.55
2019-02-19T06:13:49.026Z,1008.58
2019-02-19T06:14:49.039Z,1008.55
2019-02-19T06:15:49.056Z,1008.59
2019-02-19T06:16:49.067Z,1008.58
2019-02-19T06:17:49.083Z,1008.64
2019-02-19T06:18:49.094Z,1008.58
2019-02-19T06:19:49.114Z,1008.61
2019-02-19T06:20:49.124Z,1008.6
2019-02-19T06:21:49.137Z,1008.59
2019-02-19T06:22:49.150Z,1008.61
2019-02-19T06:23:49.188Z,1008.63
2019-02-19T06:24:49.179Z,1008.6
2019-02-19T06:26:49.207Z,1008.59
2019-02-19T06:27:49.222Z,1008.6
2019-02-19T06:28:49.234Z,1008.64
2019-02-19T06:29:49.246Z,1008.68
2019-02-19T06:30:49.261Z,1008.64
2019-02-19T06:31:49.275Z,1008.67
2019-02-19T06:32:49.289Z,1008.69
2019-02-19T06:33:49.306Z,1008.63
2019-02-19T06:34:49.318Z,1008.7
2019-02-19T06:35:49.338Z,1008.64
2019-02-19T06:36:49.344Z,1008.68
2019-02-19T06:37:49.359Z,1008.66
2019-02-19T06:38:49.474Z,1008.68
2019-02-19T06:39:49.388Z,1008.67
2019-02-19T06:40:49.401Z,1008.66
2019-02-19T06:42:49.430Z,1008.75
2019-02-19T06:43:49.444Z,1008.78
2019-02-19T06:44:49.461Z,1008.81
2019-02-19T06:45:49.472Z,1008.81
2019-02-19T06:46:49.487Z,1008.81
2019-02-19T06:47:49.501Z,1008.83
2019-02-19T06:48:49.516Z,1008.87
2019-02-19T06:49:49.533Z,1008.87
2019-02-19T06:50:49.545Z,1008.84
2019-02-19T06:51:49.561Z,1008.88
2019-02-19T06:52:49.573Z,1008.86
2019-02-19T06:53:49.592Z,1008.88
2019-02-19T06:54:49.605Z,1008.9
2019-02-19T06:55:49.621Z,1008.89
2019-02-19T06:57:49.647Z,1008.93
2019-02-19T06:58:49.662Z,1008.97
2019-02-19T06:59:49.677Z,1008.97
2019-02-19T07:00:49.694Z,1009
2019-02-19T07:01:49.707Z,1009
2019-02-19T07:02:49.720Z,1009.01
2019-02-19T07:03:49.736Z,1009.04
2019-02-19T07:04:49.752Z,1009.01
2019-02-19T07:05:49.765Z,1009.06
2019-02-19T07:06:49.781Z,1009.06
2019-02-19T07:07:49.798Z,1009.04
2019-02-19T07:08:49.811Z,1009.04
2019-02-19T07:09:49.826Z,1009.03
2019-02-19T07:10:49.842Z,1009.07
2019-02-19T07:11:49.856Z,1009.08
2019-02-19T07:12:49.875Z,1009.14
2019-02-19T07:13:49.887Z,1009.13
2019-02-19T07:14:49.901Z,1009.14
2019-02-19T07:15:49.919Z,1009.19
2019-02-19T07:16:49.933Z,1009.16
2019-02-19T07:17:49.951Z,1009.14
2019-02-19T07:18:49.965Z,1009.09
2019-02-19T07:19:49.982Z,1009.15
2019-02-19T07:20:49.996Z,1009.19
2019-02-19T07:21:50.013Z,1009.16
2019-02-19T07:22:50.033Z,1009.23
2019-02-19T07:23:50.047Z,1009.24
2019-02-19T07:24:50.062Z,1009.25
2019-02-19T07:25:50.180Z,1009.21
2019-02-19T07:26:50.097Z,1009.21
2019-02-19T07:27:50.114Z,1009.2
2019-02-19T07:29:50.148Z,1009.2
2019-02-19T07:30:50.166Z,1009.19
2019-02-19T07:31:50.182Z,1009.19
2019-02-19T07:32:50.200Z,1009.23
2019-02-19T07:33:50.217Z,1009.24
2019-02-19T07:34:50.235Z,1009.19
2019-02-19T07:35:50.252Z,1009.19
2019-02-19T07:36:50.269Z,1009.22
2019-02-19T07:37:50.287Z,1009.17
2019-02-19T07:38:50.304Z,1009.16
2019-02-19T07:39:50.321Z,1009.17
2019-02-19T07:40:50.339Z,1009.17
2019-02-19T07:41:50.357Z,1009.18
2019-02-19T07:42:50.373Z,1009.16
2019-02-19T07:43:50.391Z,1009.22
2019-02-19T07:45:52.191Z,1009.21
2019-02-19T07:46:50.443Z,1009.25
2019-02-19T07:47:50.461Z,1009.22
2019-02-19T07:48:50.529Z,1009.25
2019-02-19T07:49:50.495Z,1009.23
2019-02-19T07:50:50.512Z,1009.25
2019-02-19T07:51:50.530Z,1009.27
2019-02-19T07:52:50.552Z,1009.29
2019-02-19T07:53:50.564Z,1009.31
2019-02-19T07:54:50.581Z,1009.33
2019-02-19T07:55:50.599Z,1009.31
2019-02-19T07:56:50.617Z,1009.3
2019-02-19T07:57:50.633Z,1009.24
2019-02-19T07:58:50.650Z,1009.29
2019-02-19T07:59:50.668Z,1009.4
2019-02-19T08:01:50.706Z,1009.33
2019-02-19T08:02:50.720Z,1009.36
2019-02-19T08:03:50.736Z,1009.33
2019-02-19T08:04:50.752Z,1009.34
2019-02-19T08:05:50.770Z,1009.39
2019-02-19T08:06:50.787Z,1009.39
2019-02-19T08:07:50.804Z,1009.4
2019-02-19T08:08:50.822Z,1009.41
2019-02-19T08:09:50.837Z,1009.42
2019-02-19T08:10:50.856Z,1009.39
2019-02-19T08:11:50.871Z,1009.44
2019-02-19T08:12:50.888Z,1009.42
2019-02-19T08:13:50.905Z,1009.45
2019-02-19T08:14:50.923Z,1009.4
2019-02-19T08:15:50.942Z,1009.41
2019-02-19T08:17:50.973Z,1009.48
2019-02-19T08:18:50.991Z,1009.46
2019-02-19T08:19:51.007Z,1009.47
2019-02-19T08:20:51.023Z,1009.45
2019-02-19T08:21:51.041Z,1009.45
2019-02-19T08:22:51.057Z,1009.43
2019-02-19T08:23:51.075Z,1009.51
2019-02-19T08:24:51.091Z,1009.42
2019-02-19T08:25:51.109Z,1009.49
2019-02-19T08:26:51.125Z,1009.52
2019-02-19T08:27:51.340Z,1009.53
2019-02-19T08:28:51.159Z,1009.54
2019-02-19T08:29:51.177Z,1009.5
2019-02-19T08:30:51.194Z,1009.48
2019-02-19T08:32:51.230Z,1009.45
2019-02-19T08:33:51.245Z,1009.47
2019-02-19T08:34:51.262Z,1009.49
2019-02-19T08:35:51.290Z,1009.47
2019-02-19T08:36:51.298Z,1009.45
2019-02-19T08:37:51.313Z,1009.49
2019-02-19T08:38:51.332Z,1009.49
2019-02-19T08:39:51.349Z,1009.53
2019-02-19T08:40:51.365Z,1009.52
2019-02-19T08:41:51.382Z,1009.56
2019-02-19T08:42:51.401Z,1009.54
2019-02-19T08:43:51.417Z,1009.57
2019-02-19T08:44:51.434Z,1009.54
2019-02-19T08:45:51.452Z,1009.54
2019-02-19T08:46:51.469Z,1009.57
2019-02-19T08:47:51.488Z,1009.57
2019-02-19T08:48:51.504Z,1009.59
2019-02-19T08:49:51.521Z,1009.61
2019-02-19T08:50:51.639Z,1009.62
2019-02-19T08:51:56.010Z,1009.58
2019-02-19T08:52:51.574Z,1009.61
2019-02-19T08:53:51.593Z,1009.64
2019-02-19T08:54:51.609Z,1009.71
2019-02-19T08:55:51.626Z,1009.69
2019-02-19T08:56:51.645Z,1009.7
2019-02-19T08:57:51.661Z,1009.7
2019-02-19T08:58:51.679Z,1009.73
2019-02-19T08:59:51.697Z,1009.66
2019-02-19T09:00:51.714Z,1009.71
2019-02-19T09:01:51.732Z,1009.71
2019-02-19T09:02:51.749Z,1009.69
2019-02-19T09:04:51.784Z,1009.74
2019-02-19T09:05:51.802Z,1009.8
2019-02-19T09:06:51.819Z,1009.71
2019-02-19T09:07:51.837Z,1009.74
2019-02-19T09:08:51.855Z,1009.74
2019-02-19T09:09:51.877Z,1009.66
2019-02-19T09:10:51.893Z,1009.73
2019-02-19T09:11:51.908Z,1009.71
2019-02-19T09:12:51.926Z,1009.75
2019-02-19T09:13:51.944Z,1009.75
2019-02-19T09:14:51.961Z,1009.78
2019-02-19T09:15:51.978Z,1009.77
2019-02-19T09:16:52.001Z,1009.78
2019-02-19T09:17:52.428Z,1009.79
2019-02-19T09:18:52.031Z,1009.79
2019-02-19T09:20:52.067Z,1009.79
2019-02-19T09:21:52.084Z,1009.74
2019-02-19T09:22:52.102Z,1009.74
2019-02-19T09:23:52.123Z,1009.72
2019-02-19T09:24:52.137Z,1009.84
2019-02-19T09:25:52.156Z,1009.72
2019-02-19T09:26:52.173Z,1009.77
2019-02-19T09:27:52.193Z,1009.79
2019-02-19T09:28:52.208Z,1009.78
2019-02-19T09:29:52.226Z,1009.76
2019-02-19T09:30:52.244Z,1009.79
2019-02-19T09:31:52.262Z,1009.8
2019-02-19T09:32:52.279Z,1009.81
2019-02-19T09:33:52.297Z,1009.81
2019-02-19T09:34:52.750Z,1009.83
2019-02-19T09:36:52.351Z,1009.83
2019-02-19T09:37:52.368Z,1009.87
2019-02-19T09:38:52.389Z,1009.83
2019-02-19T09:39:52.412Z,1009.85
2019-02-19T09:40:52.427Z,1009.86
2019-02-19T09:41:52.440Z,1009.87
2019-02-19T09:42:52.458Z,1009.89
2019-02-19T09:43:52.477Z,1009.89
2019-02-19T09:44:52.493Z,1009.85
2019-02-19T09:45:52.515Z,1009.86
2019-02-19T09:46:52.529Z,1009.9
2019-02-19T09:48:00.927Z,1009.85
2019-02-19T09:48:52.565Z,1009.96
2019-02-19T09:49:52.583Z,1009.91
2019-02-19T09:50:52.602Z,1009.95
2019-02-19T09:52:59.706Z,1009.99
2019-02-19T09:53:52.654Z,1010.02
2019-02-19T09:54:52.672Z,1009.94
2019-02-19T09:55:52.690Z,1010.02
2019-02-19T09:56:52.707Z,1009.88
2019-02-19T09:57:52.726Z,1009.96
2019-02-19T09:58:52.742Z,1009.99
2019-02-19T09:59:52.760Z,1010
2019-02-19T10:00:52.779Z,1010.01
2019-02-19T10:01:52.795Z,1010.04
2019-02-19T10:02:52.813Z,1010.04
2019-02-19T10:03:52.831Z,1010.05
2019-02-19T10:04:52.849Z,1010.06
2019-02-19T10:05:52.867Z,1010.05
2019-02-19T10:07:52.902Z,1010
2019-02-19T10:08:53.019Z,1010.03
2019-02-19T10:09:52.939Z,1010
2019-02-19T10:10:52.955Z,1009.94
2019-02-19T10:11:52.973Z,1010.02
2019-02-19T10:12:52.991Z,1010.04
2019-02-19T10:13:53.008Z,1010.13
2019-02-19T10:14:53.027Z,1010.07
2019-02-19T10:15:53.043Z,1010.04
2019-02-19T10:16:53.060Z,1010.13
2019-02-19T10:17:53.078Z,1010.16
2019-02-19T10:18:53.096Z,1010.15
2019-02-19T10:19:53.113Z,1010.15
2019-02-19T10:20:53.144Z,1010.09
2019-02-19T10:21:53.149Z,1010.14
2019-02-19T10:22:53.167Z,1010.12
2019-02-19T10:23:53.184Z,1010.17
2019-02-19T10:24:53.207Z,1010.16
2019-02-19T10:25:53.220Z,1010.15
2019-02-19T10:26:53.236Z,1010.22
2019-02-19T10:27:53.255Z,1010.17
2019-02-19T10:28:53.272Z,1010.26
2019-02-19T10:29:53.290Z,1010.16
2019-02-19T10:30:53.306Z,1010.2
2019-02-19T10:31:53.324Z,1010.12
2019-02-19T10:32:53.345Z,1010.14
2019-02-19T10:33:53.360Z,1010.16
2019-02-19T10:34:53.377Z,1010.17
2019-02-19T10:35:53.395Z,1010.15
2019-02-19T10:36:53.413Z,1010.18
2019-02-19T10:37:53.431Z,1010.21
2019-02-19T10:39:53.466Z,1010.23
2019-02-19T10:40:53.484Z,1010.25
2019-02-19T10:41:53.501Z,1010.27
2019-02-19T10:42:53.521Z,1010.28
2019-02-19T10:43:53.537Z,1010.4
2019-02-19T10:44:53.555Z,1010.32
2019-02-19T10:45:53.575Z,1010.28
2019-02-19T10:46:53.594Z,1010.35
2019-02-19T10:47:53.609Z,1010.23
2019-02-19T10:48:53.626Z,1010.29
2019-02-19T10:49:53.645Z,1010.29
2019-02-19T10:50:53.662Z,1010.3
2019-02-19T10:51:53.682Z,1010.29
2019-02-19T10:52:53.698Z,1010.26
2019-02-19T10:53:53.716Z,1010.28
2019-02-19T10:55:53.753Z,1010.27
2019-02-19T10:56:53.769Z,1010.27
2019-02-19T10:57:53.788Z,1010.27
2019-02-19T10:58:53.805Z,1010.25
2019-02-19T10:59:53.834Z,1010.26
2019-02-19T11:00:53.842Z,1010.25
2019-02-19T11:01:53.859Z,1010.27
2019-02-19T11:02:53.877Z,1010.27
2019-02-19T11:03:53.894Z,1010.21
2019-02-19T11:04:53.912Z,1010.26
2019-02-19T11:05:53.931Z,1010.19
2019-02-19T11:06:53.949Z,1010.22
2019-02-19T11:07:53.966Z,1010.23
2019-02-19T11:08:53.984Z,1010.2
2019-02-19T11:09:54.002Z,1010.21
2019-02-19T11:11:54.038Z,1010.28
2019-02-19T11:12:54.056Z,1010.24
2019-02-19T11:13:54.075Z,1010.37
2019-02-19T11:14:54.092Z,1010.28
2019-02-19T11:15:54.111Z,1010.35
2019-02-19T11:16:54.129Z,1010.32
2019-02-19T11:17:54.147Z,1010.33
2019-02-19T11:18:54.167Z,1010.34
2019-02-19T11:19:54.183Z,1010.37
2019-02-19T11:20:54.213Z,1010.27
2019-02-19T11:21:54.220Z,1010.37
2019-02-19T11:22:54.238Z,1010.33
2019-02-19T11:23:54.256Z,1010.27
2019-02-19T11:24:54.274Z,1010.32
2019-02-19T11:25:54.292Z,1010.33
2019-02-19T11:27:54.329Z,1010.24
2019-02-19T11:28:54.348Z,1010.23
2019-02-19T11:29:54.365Z,1010.22
2019-02-19T11:30:54.384Z,1010.28
2019-02-19T11:31:54.402Z,1010.17
2019-02-19T11:32:54.420Z,1010.24
2019-02-19T11:33:54.442Z,1010.25
2019-02-19T11:34:54.457Z,1010.23
2019-02-19T11:35:54.883Z,1010.23
2019-02-19T11:36:54.499Z,1010.2
2019-02-19T11:37:54.520Z,1010.22
2019-02-19T11:38:54.530Z,1010.19
2019-02-19T11:39:54.550Z,1010.2
2019-02-19T11:40:54.578Z,1010.19
2019-02-19T11:42:54.606Z,1010.21
2019-02-19T11:43:54.632Z,1010.17
2019-02-19T11:44:54.642Z,1010.16
2019-02-19T11:45:54.668Z,1010.13
2019-02-19T11:46:54.680Z,1010.18
2019-02-19T11:47:54.698Z,1010.21
2019-02-19T11:48:56.171Z,1010.17
2019-02-19T11:49:54.736Z,1010.14
2019-02-19T11:50:54.754Z,1010.18
2019-02-19T11:51:54.773Z,1010.14
2019-02-19T11:52:54.792Z,1010.15
2019-02-19T11:53:54.811Z,1010.12
2019-02-19T11:54:54.829Z,1010.22
2019-02-19T11:55:54.848Z,1010.19
2019-02-19T11:56:54.867Z,1010.21
2019-02-19T11:57:54.889Z,1010.21
2019-02-19T11:58:54.903Z,1010.17
2019-02-19T11:59:54.922Z,1010.17
2019-02-19T12:00:54.941Z,1010.15
2019-02-19T12:01:54.959Z,1010.15
2019-02-19T12:02:54.978Z,1010.19
2019-02-19T12:03:54.997Z,1010.13
2019-02-19T12:04:55.017Z,1010.08
2019-02-19T12:05:55.034Z,1010.13
2019-02-19T12:06:55.053Z,1010.09
2019-02-19T12:07:55.071Z,1010.15
2019-02-19T12:08:55.091Z,1010.07
2019-02-19T12:09:55.108Z,1010.06
2019-02-19T12:10:55.127Z,1010.09
2019-02-19T12:11:55.145Z,1010.12
2019-02-19T12:12:55.163Z,1010.07
2019-02-19T12:14:55.301Z,1010.1
2019-02-19T12:15:55.220Z,1010.08
2019-02-19T12:16:55.246Z,1010.14
2019-02-19T12:17:55.256Z,1010.11
2019-02-19T12:18:55.275Z,1010.05
2019-02-19T12:19:55.294Z,1010.07
2019-02-19T12:20:55.311Z,1010.11
2019-02-19T12:21:55.330Z,1010.07
2019-02-19T12:22:55.351Z,1010.06
2019-02-19T12:23:55.367Z,1010.08
2019-02-19T12:24:55.392Z,1010.08
2019-02-19T12:25:55.406Z,1009.94
2019-02-19T12:26:55.424Z,1010
2019-02-19T12:27:55.442Z,1010.04
2019-02-19T12:28:55.468Z,1010.05
2019-02-19T12:30:55.606Z,1010.01
2019-02-19T12:31:55.518Z,1009.98
2019-02-19T12:32:55.537Z,1009.97
2019-02-19T12:33:55.556Z,1010
2019-02-19T12:34:55.576Z,1009.94
2019-02-19T12:35:55.593Z,1009.96
2019-02-19T12:36:55.612Z,1009.98
2019-02-19T12:37:55.632Z,1009.95
2019-02-19T12:38:55.649Z,1009.96
2019-02-19T12:39:55.675Z,1009.94
2019-02-19T12:40:55.688Z,1009.86
2019-02-19T12:41:55.707Z,1009.93
2019-02-19T12:42:55.726Z,1009.86
2019-02-19T12:43:55.744Z,1009.9
2019-02-19T12:44:55.764Z,1009.83
2019-02-19T12:46:55.801Z,1009.9
2019-02-19T12:47:55.820Z,1009.93
2019-02-19T12:48:55.857Z,1009.85
2019-02-19T12:49:55.858Z,1009.91